Time;durP1;ratioP1;P1;durP2;ratioP2;P2;SDS_P1;SDS_P2;PMS_P1;PMS_P2;Temp;Humidity;BMP_temperature;BMP_pressure;BME280_temperature;BME280_humidity;BME280_pressure;Samples;Min_cycle;Max_cycle;Signal;HPM_P1;HPM_P2
2022/03/28 00:00:35;;;;;;;35.90;14.77;;;6.60;99.90;;;;;;5113490;28;20096;-88
2022/03/28 00:03:01;;;;;;;38.30;14.10;;;6.60;99.90;;;;;;5104748;28;20690;-89
2022/03/28 00:05:27;;;;;;;31.77;15.13;;;6.60;99.90;;;;;;5095785;28;20055;-89
2022/03/28 00:07:53;;;;;;;35.17;14.63;;;6.60;99.90;;;;;;5126692;27;20035;-89
2022/03/28 00:10:18;;;;;;;19.95;12.25;;;6.50;99.90;;;;;;5121032;27;20096;-88
2022/03/28 00:12:44;;;;;;;16.52;11.57;;;6.60;99.90;;;;;;5115016;28;20028;-85
2022/03/28 00:15:10;;;;;;;50.15;12.55;;;6.50;99.90;;;;;;5115750;28;20058;-89
2022/03/28 00:17:36;;;;;;;29.95;13.43;;;6.60;99.90;;;;;;5118051;28;20127;-90
2022/03/28 00:20:04;;;;;;;26.30;13.38;;;6.50;99.90;;;;;;5100079;28;20050;-89
2022/03/28 00:22:29;;;;;;;54.30;14.38;;;6.50;99.90;;;;;;5115011;28;20067;-90
2022/03/28 00:24:55;;;;;;;45.63;13.30;;;6.70;99.90;;;;;;5104641;28;20034;-86
2022/03/28 00:27:20;;;;;;;23.35;14.63;;;6.60;99.90;;;;;;5115095;28;20117;-81
2022/03/28 00:29:46;;;;;;;17.90;13.10;;;6.60;99.90;;;;;;5141288;28;20050;-87
2022/03/28 00:32:12;;;;;;;23.33;13.25;;;6.60;99.90;;;;;;5135408;27;20027;-88
2022/03/28 00:34:38;;;;;;;25.98;13.57;;;6.70;99.90;;;;;;5142520;28;20066;-88
2022/03/28 00:37:04;;;;;;;63.08;13.85;;;6.70;99.90;;;;;;5135579;27;20031;-89
2022/03/28 00:39:30;;;;;;;25.50;13.95;;;6.70;99.90;;;;;;5129782;27;20048;-90
2022/03/28 00:41:56;;;;;;;17.73;12.20;;;6.70;99.90;;;;;;5116381;28;20058;-91
2022/03/28 00:44:23;;;;;;;18.65;12.10;;;6.80;99.90;;;;;;5116345;28;20397;-90
2022/03/28 00:46:49;;;;;;;20.95;11.82;;;6.60;99.90;;;;;;5112861;28;20078;-90
2022/03/28 00:49:16;;;;;;;12.05;8.23;;;6.60;99.90;;;;;;5115063;28;20120;-90
2022/03/28 00:51:42;;;;;;;9.73;8.73;;;6.50;99.90;;;;;;5123492;28;20039;-89
2022/03/28 00:54:08;;;;;;;27.25;9.80;;;6.50;99.90;;;;;;5099594;28;20095;-88
2022/03/28 00:56:36;;;;;;;51.63;11.63;;;6.40;99.90;;;;;;5117447;28;20054;-90
2022/03/28 00:59:02;;;;;;;14.57;9.25;;;6.40;99.90;;;;;;5117097;28;20095;-89
2022/03/28 01:01:28;;;;;;;28.88;10.45;;;6.40;99.90;;;;;;5126263;28;20040;-88
2022/03/28 01:03:54;;;;;;;13.75;8.80;;;6.30;99.90;;;;;;5113477;28;20040;-88
2022/03/28 01:06:20;;;;;;;16.52;10.57;;;6.30;99.90;;;;;;5103872;28;20073;-90
2022/03/28 01:08:45;;;;;;;53.95;10.20;;;6.40;99.90;;;;;;5105897;27;20523;-91
2022/03/28 01:11:12;;;;;;;15.40;10.48;;;6.40;99.90;;;;;;5116496;28;20482;-86
2022/03/28 01:13:40;;;;;;;14.68;9.35;;;6.40;99.90;;;;;;5100431;27;20119;-86
2022/03/28 01:16:07;;;;;;;14.43;9.38;;;6.40;99.90;;;;;;5094550;28;20079;-85
2022/03/28 01:18:33;;;;;;;18.25;10.07;;;6.40;99.90;;;;;;5093308;28;20032;-85
2022/03/28 01:21:03;;;;;;;14.98;10.10;;;6.40;99.90;;;;;;5108168;28;20080;-86
2022/03/28 01:23:29;;;;;;;13.15;9.77;;;6.50;99.90;;;;;;5106945;28;20406;-86
2022/03/28 01:25:56;;;;;;;12.38;9.38;;;6.40;99.90;;;;;;5113330;27;20474;-88
2022/03/28 01:28:24;;;;;;;13.20;10.07;;;6.50;99.90;;;;;;5114415;27;20068;-86
2022/03/28 01:30:51;;;;;;;28.23;11.60;;;6.50;99.90;;;;;;5114792;27;20040;-85
2022/03/28 01:33:17;;;;;;;30.92;10.57;;;6.60;99.90;;;;;;5099441;28;20065;-79
2022/03/28 01:35:44;;;;;;;14.57;9.75;;;6.50;99.90;;;;;;5113037;28;20043;-81
2022/03/28 01:38:14;;;;;;;11.80;9.77;;;6.50;99.90;;;;;;5112750;27;20038;-84
2022/03/28 01:40:46;;;;;;;20.35;10.95;;;6.40;99.90;;;;;;5115172;27;20054;-84
2022/03/28 01:43:12;;;;;;;20.15;10.90;;;6.40;99.90;;;;;;5113174;28;20122;-86
2022/03/28 01:45:38;;;;;;;15.95;10.77;;;6.40;99.90;;;;;;5124397;27;20142;-85
2022/03/28 01:48:05;;;;;;;15.90;11.05;;;6.40;99.90;;;;;;5134538;27;20035;-85
2022/03/28 01:50:31;;;;;;;11.05;9.73;;;6.40;99.90;;;;;;5127087;27;20035;-85
2022/03/28 01:52:57;;;;;;;18.33;10.57;;;6.30;99.90;;;;;;5083803;28;20082;-85
2022/03/28 01:55:23;;;;;;;12.02;9.13;;;6.30;99.90;;;;;;5093718;28;20040;-84
2022/03/28 01:57:50;;;;;;;12.88;8.63;;;6.30;99.90;;;;;;5095685;28;20085;-85
2022/03/28 02:00:17;;;;;;;13.65;9.68;;;6.30;99.90;;;;;;5127844;27;20039;-85
2022/03/28 02:02:45;;;;;;;13.52;9.65;;;6.30;99.90;;;;;;5123587;27;20048;-83
2022/03/28 02:05:12;;;;;;;20.35;10.20;;;6.30;99.90;;;;;;5111112;28;20396;-82
2022/03/28 02:07:44;;;;;;;16.45;8.60;;;6.40;99.90;;;;;;5104471;28;20506;-83
2022/03/28 02:10:11;;;;;;;11.57;10.05;;;6.50;99.90;;;;;;5107052;27;20063;-83
2022/03/28 02:12:37;;;;;;;12.15;9.23;;;6.40;99.90;;;;;;5106389;27;20050;-82
2022/03/28 02:15:06;;;;;;;12.50;9.45;;;6.40;99.90;;;;;;5147902;27;20062;-83
2022/03/28 02:17:35;;;;;;;15.48;9.57;;;6.40;99.90;;;;;;5130286;28;20091;-84
2022/03/28 02:20:05;;;;;;;15.07;10.30;;;6.40;99.90;;;;;;5109873;28;20027;-83
2022/03/28 02:22:31;;;;;;;23.73;11.32;;;6.40;99.90;;;;;;5095751;28;20040;-85
2022/03/28 02:24:57;;;;;;;16.42;11.18;;;6.40;99.90;;;;;;5118193;27;20051;-84
2022/03/28 02:27:23;;;;;;;19.40;11.10;;;6.50;99.90;;;;;;5135071;27;20095;-84
2022/03/28 02:29:48;;;;;;;15.48;9.90;;;6.40;99.90;;;;;;5113435;28;20130;-85
2022/03/28 02:32:14;;;;;;;21.75;10.13;;;6.40;99.90;;;;;;5110590;27;20036;-84
2022/03/28 02:34:40;;;;;;;18.17;9.25;;;6.40;99.90;;;;;;5091801;28;20553;-85
2022/03/28 02:37:06;;;;;;;12.55;9.82;;;6.30;99.90;;;;;;5092672;28;20040;-85
2022/03/28 02:39:31;;;;;;;9.52;7.88;;;6.40;99.90;;;;;;5092862;28;20093;-85
2022/03/28 02:41:57;;;;;;;12.35;9.55;;;6.30;99.90;;;;;;5092770;28;20044;-84
2022/03/28 02:44:22;;;;;;;11.10;9.18;;;6.30;99.90;;;;;;5096290;28;20027;-85
2022/03/28 02:46:49;;;;;;;10.65;8.40;;;6.30;99.90;;;;;;5111587;27;20039;-84
2022/03/28 02:49:15;;;;;;;17.05;10.70;;;6.20;99.90;;;;;;5102723;28;20044;-84
2022/03/28 02:51:40;;;;;;;16.08;9.38;;;6.30;99.90;;;;;;5107538;27;20134;-85
2022/03/28 02:54:06;;;;;;;12.52;9.23;;;6.30;99.90;;;;;;5131280;27;20647;-86
2022/03/28 02:56:32;;;;;;;14.65;10.52;;;6.20;99.90;;;;;;5113224;27;20086;-85
2022/03/28 02:58:59;;;;;;;16.60;10.07;;;6.20;99.90;;;;;;5113434;28;20042;-85
2022/03/28 03:01:25;;;;;;;19.50;12.45;;;6.30;99.90;;;;;;5095573;28;20050;-85
2022/03/28 03:03:50;;;;;;;17.95;10.70;;;6.30;99.90;;;;;;5113147;28;20039;-86
2022/03/28 03:06:16;;;;;;;13.30;10.10;;;6.20;99.90;;;;;;5114653;28;20039;-86
2022/03/28 03:08:42;;;;;;;13.23;10.23;;;6.20;99.90;;;;;;5137104;28;20027;-82
2022/03/28 03:11:09;;;;;;;22.75;10.82;;;6.20;99.90;;;;;;5132951;28;20034;-84
2022/03/28 03:13:35;;;;;;;13.35;10.65;;;6.20;99.90;;;;;;5135129;28;20054;-83
2022/03/28 03:16:00;;;;;;;15.25;11.18;;;6.20;99.90;;;;;;5137255;28;20048;-82
2022/03/28 03:18:26;;;;;;;15.38;12.50;;;6.20;99.90;;;;;;5123533;28;20048;-86
2022/03/28 03:20:51;;;;;;;26.67;12.77;;;6.20;99.90;;;;;;5102161;28;20134;-86
2022/03/28 03:23:17;;;;;;;16.98;12.25;;;6.20;99.90;;;;;;5114134;28;20054;-88
2022/03/28 03:25:42;;;;;;;19.95;12.60;;;6.30;99.90;;;;;;5130372;27;20065;-85
2022/03/28 03:28:08;;;;;;;14.40;11.50;;;6.30;99.90;;;;;;5155362;27;20022;-84
2022/03/28 03:30:35;;;;;;;18.33;12.10;;;6.30;99.90;;;;;;5146033;27;20081;-83
2022/03/28 03:33:00;;;;;;;15.70;11.07;;;6.30;99.90;;;;;;5144615;27;20043;-84
2022/03/28 03:35:26;;;;;;;30.67;12.15;;;6.20;99.90;;;;;;5111863;27;20048;-84
2022/03/28 03:37:51;;;;;;;20.95;12.65;;;6.20;99.90;;;;;;5109561;27;20036;-84
2022/03/28 03:40:17;;;;;;;15.13;13.13;;;6.20;99.90;;;;;;5127621;27;20032;-79
2022/03/28 03:42:43;;;;;;;20.77;13.27;;;6.20;99.90;;;;;;5122873;28;20043;-84
2022/03/28 03:45:09;;;;;;;16.98;13.35;;;6.20;99.90;;;;;;5101009;28;20455;-85
2022/03/28 03:47:35;;;;;;;15.05;11.82;;;6.10;99.90;;;;;;5096610;28;20036;-81
2022/03/28 03:50:02;;;;;;;16.73;12.38;;;6.20;99.90;;;;;;5137026;27;20028;-83
2022/03/28 03:52:27;;;;;;;17.38;12.10;;;6.20;99.90;;;;;;5140098;27;20042;-83
2022/03/28 03:54:53;;;;;;;18.20;11.88;;;6.10;99.90;;;;;;5132538;27;20098;-84
2022/03/28 03:57:19;;;;;;;19.00;13.13;;;6.20;99.90;;;;;;5125157;27;20493;-83
2022/03/28 03:59:44;;;;;;;17.52;13.82;;;6.20;99.90;;;;;;5105885;28;20036;-82
2022/03/28 04:02:10;;;;;;;19.77;14.80;;;6.10;99.90;;;;;;5103228;28;20067;-83
2022/03/28 04:04:35;;;;;;;31.70;15.18;;;6.10;99.90;;;;;;5140399;27;20046;-81
2022/03/28 04:07:01;;;;;;;16.77;13.50;;;6.10;99.90;;;;;;5150190;27;20058;-81
2022/03/28 04:09:26;;;;;;;18.95;15.13;;;6.20;99.90;;;;;;5141980;27;20039;-82
2022/03/28 04:11:52;;;;;;;21.77;13.25;;;6.10;99.90;;;;;;5126780;27;20185;-85
2022/03/28 04:14:17;;;;;;;23.73;14.15;;;6.10;99.90;;;;;;5142485;27;20504;-76
2022/03/28 04:16:43;;;;;;;20.52;13.05;;;6.20;99.90;;;;;;5145558;27;20516;-83
2022/03/28 04:19:09;;;;;;;17.15;13.70;;;6.20;99.90;;;;;;5132619;27;20045;-81
2022/03/28 04:21:35;;;;;;;15.25;12.73;;;6.20;99.90;;;;;;5146828;27;20063;-83
2022/03/28 04:24:01;;;;;;;18.88;12.52;;;6.20;99.90;;;;;;5117607;27;20047;-84
2022/03/28 04:26:26;;;;;;;16.80;12.90;;;6.10;99.90;;;;;;5144079;27;20034;-83
2022/03/28 04:28:52;;;;;;;15.52;13.52;;;6.10;99.90;;;;;;5104515;28;20040;-82
2022/03/28 04:31:17;;;;;;;13.15;11.82;;;6.10;99.90;;;;;;5134543;27;20088;-77
2022/03/28 04:33:43;;;;;;;18.00;13.18;;;6.20;99.90;;;;;;5115905;28;20187;-82
2022/03/28 04:36:08;;;;;;;20.25;13.40;;;6.10;99.90;;;;;;5094740;28;20051;-84
2022/03/28 04:38:34;;;;;;;16.02;12.77;;;6.20;99.90;;;;;;5117688;28;20031;-85
2022/03/28 04:41:00;;;;;;;19.90;13.32;;;6.10;99.90;;;;;;5135102;27;20113;-85
2022/03/28 04:43:25;;;;;;;21.35;14.75;;;6.20;99.90;;;;;;5096386;27;20440;-84
2022/03/28 04:45:51;;;;;;;21.73;15.20;;;6.20;99.90;;;;;;5120361;28;20532;-83
2022/03/28 04:48:17;;;;;;;19.63;14.23;;;6.10;99.90;;;;;;5118219;28;20090;-80
2022/03/28 04:50:42;;;;;;;21.90;14.98;;;6.20;99.90;;;;;;5126795;28;20067;-84
2022/03/28 04:53:08;;;;;;;40.40;16.33;;;6.30;99.90;;;;;;5115719;28;20047;-82
2022/03/28 04:55:34;;;;;;;18.88;13.95;;;6.20;99.90;;;;;;5142410;27;20046;-82
2022/03/28 04:58:00;;;;;;;27.23;16.10;;;6.30;99.90;;;;;;5135465;27;20731;-84
2022/03/28 05:00:26;;;;;;;25.27;15.05;;;6.20;99.90;;;;;;5132942;27;20047;-84
2022/03/28 05:02:51;;;;;;;24.48;15.00;;;6.20;99.90;;;;;;5112591;28;20069;-85
2022/03/28 05:05:17;;;;;;;18.00;14.10;;;6.20;99.90;;;;;;5112215;28;20056;-83
2022/03/28 05:07:42;;;;;;;20.70;14.30;;;6.20;99.90;;;;;;5112391;28;20122;-85
2022/03/28 05:10:09;;;;;;;19.83;12.98;;;6.10;99.90;;;;;;5110158;28;20046;-83
2022/03/28 05:12:35;;;;;;;21.55;14.00;;;6.10;99.90;;;;;;5111132;28;20496;-82
2022/03/28 05:15:01;;;;;;;16.33;13.57;;;6.20;99.90;;;;;;5091561;28;20043;-84
2022/03/28 05:17:29;;;;;;;16.75;12.38;;;6.20;99.90;;;;;;5090448;28;20452;-84
2022/03/28 05:19:57;;;;;;;15.07;12.27;;;6.00;99.90;;;;;;5110610;28;20047;-83
2022/03/28 05:22:23;;;;;;;29.35;15.07;;;6.00;99.90;;;;;;5119428;28;20418;-84
2022/03/28 05:24:53;;;;;;;26.20;15.95;;;6.00;99.90;;;;;;5109365;27;20540;-84
2022/03/28 05:27:20;;;;;;;18.52;14.30;;;6.10;99.90;;;;;;5110143;28;20035;-82
2022/03/28 05:29:46;;;;;;;24.65;14.32;;;6.00;99.90;;;;;;5110575;28;20079;-83
2022/03/28 05:32:12;;;;;;;18.65;13.50;;;6.10;99.90;;;;;;5111120;28;20040;-79
2022/03/28 05:34:37;;;;;;;17.25;12.73;;;6.00;99.90;;;;;;5103506;28;20128;-82
2022/03/28 05:37:13;;;;;;;22.40;13.50;;;6.00;99.90;;;;;;5090463;28;20036;-85
2022/03/28 05:39:39;;;;;;;18.83;13.00;;;6.00;99.90;;;;;;5106832;28;20043;-82
2022/03/28 05:42:05;;;;;;;20.65;14.48;;;6.00;99.90;;;;;;5112016;28;20405;-81
2022/03/28 05:44:32;;;;;;;18.73;13.10;;;6.00;99.90;;;;;;5094183;28;20043;-83
2022/03/28 05:46:58;;;;;;;21.20;13.85;;;6.10;99.90;;;;;;5102958;28;20099;-83
2022/03/28 05:49:23;;;;;;;23.20;13.98;;;6.00;99.90;;;;;;5109821;28;20036;-83
2022/03/28 05:51:50;;;;;;;25.23;13.32;;;6.00;99.90;;;;;;5110449;28;20540;-83
2022/03/28 05:54:16;;;;;;;21.38;13.90;;;6.00;99.90;;;;;;5102600;28;20040;-82
2022/03/28 05:56:42;;;;;;;23.15;15.55;;;6.10;99.90;;;;;;5110113;28;20131;-82
2022/03/28 05:59:07;;;;;;;23.33;13.35;;;6.00;99.90;;;;;;5095087;28;20109;-83
2022/03/28 06:01:37;;;;;;;19.92;14.35;;;6.10;99.90;;;;;;5111236;28;20044;-82
2022/03/28 06:04:04;;;;;;;18.38;12.43;;;6.10;99.90;;;;;;5108099;28;20048;-83
2022/03/28 06:06:31;;;;;;;20.63;14.30;;;6.10;99.90;;;;;;5094584;28;20040;-84
2022/03/28 06:08:57;;;;;;;23.88;13.85;;;6.10;99.90;;;;;;5107862;28;20047;-84
2022/03/28 06:11:22;;;;;;;18.83;13.77;;;6.10;99.90;;;;;;5113683;28;20044;-83
2022/03/28 06:13:48;;;;;;;17.70;12.13;;;6.10;99.90;;;;;;5109067;28;20070;-83
2022/03/28 06:16:14;;;;;;;32.40;12.63;;;6.10;99.90;;;;;;5091986;28;20424;-82
2022/03/28 06:18:39;;;;;;;20.58;11.43;;;6.00;99.90;;;;;;5099112;28;20067;-84
2022/03/28 06:21:07;;;;;;;22.08;12.18;;;5.90;99.90;;;;;;5112085;27;20147;-84
2022/03/28 06:23:36;;;;;;;35.10;11.13;;;6.00;99.90;;;;;;5098313;28;20090;-85
2022/03/28 06:26:03;;;;;;;13.80;8.15;;;6.00;99.90;;;;;;5113000;28;20031;-84
2022/03/28 06:28:29;;;;;;;12.82;9.07;;;5.90;99.90;;;;;;5113255;28;20043;-87
2022/03/28 06:30:55;;;;;;;9.50;5.25;;;5.80;99.90;;;;;;5079187;28;20093;-84
2022/03/28 06:33:21;;;;;;;6.00;3.72;;;5.70;99.90;;;;;;5092343;28;20051;-85
2022/03/28 06:35:47;;;;;;;8.05;4.53;;;5.60;99.90;;;;;;5107334;28;20052;-81
2022/03/28 06:38:12;;;;;;;3.65;2.78;;;5.50;99.90;;;;;;5100909;28;20216;-82
2022/03/28 06:40:38;;;;;;;2.17;1.55;;;5.60;99.90;;;;;;5105786;27;20382;-85
2022/03/28 06:43:04;;;;;;;3.95;2.30;;;5.50;99.90;;;;;;5105433;28;20040;-83
2022/03/28 06:45:31;;;;;;;3.22;2.22;;;5.60;99.90;;;;;;5109925;28;20064;-82
2022/03/28 06:47:57;;;;;;;5.03;3.20;;;5.50;99.90;;;;;;5107042;27;20044;-83
2022/03/28 06:50:25;;;;;;;3.55;2.13;;;5.80;99.90;;;;;;5106474;27;20436;-83
2022/03/28 06:52:52;;;;;;;3.00;1.98;;;5.70;99.90;;;;;;5113622;28;20047;-83
2022/03/28 06:55:18;;;;;;;5.35;2.03;;;5.60;99.90;;;;;;5106084;28;20048;-84
2022/03/28 06:57:44;;;;;;;3.30;1.85;;;5.60;99.90;;;;;;5113072;28;20059;-82
2022/03/28 07:00:10;;;;;;;2.85;2.10;;;5.70;99.90;;;;;;5106362;27;20485;-83
2022/03/28 07:02:36;;;;;;;3.83;2.17;;;5.80;99.90;;;;;;5111033;28;20519;-83
2022/03/28 07:05:04;;;;;;;3.47;1.55;;;5.90;99.90;;;;;;5112883;28;20039;-83
2022/03/28 07:07:44;;;;;;;2.65;1.88;;;6.00;99.90;;;;;;5113444;28;20040;-83
2022/03/28 07:10:11;;;;;;;1.85;1.48;;;5.90;99.90;;;;;;5110318;27;20071;-81
2022/03/28 07:12:37;;;;;;;2.10;1.60;;;6.00;99.90;;;;;;5113308;28;20043;-82
2022/03/28 07:15:05;;;;;;;2.95;1.58;;;6.00;99.90;;;;;;5126258;28;20471;-81
2022/03/28 07:17:31;;;;;;;1.88;1.67;;;6.10;99.90;;;;;;5128194;28;20028;-83
2022/03/28 07:19:57;;;;;;;4.07;1.98;;;6.20;99.90;;;;;;5119640;27;20063;-82
2022/03/28 07:22:22;;;;;;;6.30;3.40;;;6.20;99.90;;;;;;5106539;27;20069;-83
2022/03/28 07:24:48;;;;;;;5.07;3.35;;;6.20;99.90;;;;;;5101444;28;20077;-83
2022/03/28 07:27:14;;;;;;;5.00;2.85;;;6.30;99.90;;;;;;5106178;28;20046;-82
2022/03/28 07:29:43;;;;;;;4.57;2.70;;;6.20;99.90;;;;;;5102811;28;20094;-83
2022/03/28 07:32:09;;;;;;;7.10;3.50;;;6.20;99.90;;;;;;5107928;28;20043;-84
2022/03/28 07:34:35;;;;;;;5.90;2.88;;;6.20;99.90;;;;;;5110550;28;20096;-85
2022/03/28 07:37:03;;;;;;;5.90;3.75;;;6.30;99.90;;;;;;5108765;28;20050;-87
2022/03/28 07:39:29;;;;;;;6.03;4.50;;;6.30;99.90;;;;;;5095691;28;20083;-86
2022/03/28 07:41:55;;;;;;;5.10;3.78;;;6.20;99.90;;;;;;5106063;27;20046;-86
2022/03/28 07:44:21;;;;;;;5.28;3.65;;;6.20;99.90;;;;;;5091301;28;20036;-86
2022/03/28 07:46:47;;;;;;;4.82;3.50;;;6.20;99.90;;;;;;5099140;28;20042;-82
2022/03/28 07:49:14;;;;;;;4.88;3.72;;;6.40;99.90;;;;;;5102956;27;20027;-84
2022/03/28 07:51:40;;;;;;;6.18;4.22;;;6.40;99.90;;;;;;5102053;28;20047;-86
2022/03/28 07:54:06;;;;;;;8.73;5.28;;;6.40;99.90;;;;;;5108999;28;20397;-88
2022/03/28 07:56:32;;;;;;;6.25;5.25;;;6.30;99.90;;;;;;5111977;27;20824;-89
2022/03/28 07:59:00;;;;;;;10.05;6.63;;;6.30;99.90;;;;;;5108144;28;20040;-86
2022/03/28 08:01:26;;;;;;;9.75;6.28;;;6.50;99.90;;;;;;5104275;28;20088;-87
2022/03/28 08:03:51;;;;;;;9.43;7.20;;;6.50;99.90;;;;;;5111048;27;20942;-88
2022/03/28 08:06:17;;;;;;;11.45;7.72;;;6.60;99.90;;;;;;5114720;28;20046;-82
2022/03/28 08:08:43;;;;;;;12.88;7.25;;;6.50;99.90;;;;;;5113194;28;20045;-87
2022/03/28 08:11:09;;;;;;;12.55;8.32;;;6.50;99.90;;;;;;5102678;28;20031;-84
2022/03/28 08:13:36;;;;;;;10.73;6.88;;;6.50;99.90;;;;;;5116602;28;20146;-85
2022/03/28 08:16:02;;;;;;;13.00;8.95;;;6.60;99.90;;;;;;5112309;28;20063;-85
2022/03/28 08:18:28;;;;;;;10.90;8.48;;;6.60;99.90;;;;;;5110054;28;20044;-88
2022/03/28 08:20:54;;;;;;;17.15;9.73;;;6.50;99.90;;;;;;5113535;28;20077;-89
2022/03/28 08:23:20;;;;;;;9.10;8.20;;;6.50;99.90;;;;;;5108469;28;20528;-89
2022/03/28 08:25:47;;;;;;;8.70;6.45;;;6.50;99.90;;;;;;5107745;28;20039;-88
2022/03/28 08:28:14;;;;;;;10.88;9.07;;;6.60;99.90;;;;;;5110465;28;20044;-88
2022/03/28 08:30:39;;;;;;;10.20;8.30;;;6.70;99.90;;;;;;5108586;28;20432;-86
2022/03/28 08:33:05;;;;;;;9.35;8.13;;;6.60;99.90;;;;;;5097413;28;20051;-86
2022/03/28 08:35:31;;;;;;;13.23;9.40;;;6.60;99.90;;;;;;5106888;28;20466;-85
2022/03/28 08:37:58;;;;;;;13.68;8.07;;;6.70;99.90;;;;;;5120197;28;20039;-85
2022/03/28 08:40:23;;;;;;;11.48;9.65;;;6.50;99.90;;;;;;5132913;28;20124;-83
2022/03/28 08:42:49;;;;;;;10.48;8.65;;;6.60;99.90;;;;;;5126318;28;20486;-84
2022/03/28 08:45:16;;;;;;;12.55;9.20;;;6.60;99.90;;;;;;5133710;28;20044;-84
2022/03/28 08:47:47;;;;;;;11.98;10.05;;;6.70;99.90;;;;;;5131732;27;20054;-80
2022/03/28 08:50:13;;;;;;;18.40;12.05;;;6.60;99.90;;;;;;5123866;28;20043;-84
2022/03/28 08:52:41;;;;;;;12.35;9.57;;;6.70;99.90;;;;;;5112613;28;20054;-84
2022/03/28 08:55:12;;;;;;;14.30;10.20;;;6.70;99.90;;;;;;5117044;28;20039;-87
2022/03/28 08:57:37;;;;;;;12.93;9.95;;;6.60;99.90;;;;;;5112569;28;20043;-88
2022/03/28 09:00:05;;;;;;;14.85;10.18;;;6.80;99.90;;;;;;5104967;28;20051;-87
2022/03/28 09:02:37;;;;;;;14.30;10.05;;;6.80;99.90;;;;;;5097989;28;20035;-86
2022/03/28 09:05:04;;;;;;;12.40;9.65;;;6.80;99.90;;;;;;5105010;28;20531;-86
2022/03/28 09:07:30;;;;;;;12.90;10.13;;;6.90;99.90;;;;;;5108884;28;20027;-88
2022/03/28 09:10:00;;;;;;;19.27;12.65;;;6.70;99.90;;;;;;5110441;28;20042;-84
2022/03/28 09:12:26;;;;;;;20.90;11.98;;;6.90;99.90;;;;;;5093154;28;20036;-87
2022/03/28 09:15:02;;;;;;;12.70;11.50;;;6.90;99.90;;;;;;5100931;28;20040;-87
2022/03/28 09:17:28;;;;;;;17.98;12.70;;;7.00;99.90;;;;;;5095439;28;20035;-88
2022/03/28 09:19:55;;;;;;;21.13;11.82;;;7.10;99.90;;;;;;5109235;28;20043;-89
2022/03/28 09:22:41;;;;;;;15.73;11.85;;;7.10;99.90;;;;;;5108567;28;20040;-86
2022/03/28 09:25:10;;;;;;;17.85;10.48;;;7.10;99.90;;;;;;5086386;28;20054;-85
2022/03/28 09:27:39;;;;;;;13.25;10.95;;;7.20;99.90;;;;;;5095001;28;20469;-85
2022/03/28 09:30:16;;;;;;;17.02;11.77;;;7.30;99.90;;;;;;5106167;27;20051;-86
2022/03/28 09:32:47;;;;;;;16.35;11.10;;;7.30;99.90;;;;;;5107237;27;20059;-85
2022/03/28 09:35:21;;;;;;;14.52;11.70;;;7.40;99.90;;;;;;5094276;27;20040;-86
2022/03/28 09:37:48;;;;;;;12.35;10.55;;;7.40;99.90;;;;;;5085120;28;20035;-85
2022/03/28 09:40:22;;;;;;;14.68;10.65;;;7.60;99.90;;;;;;5101379;28;20653;-85
2022/03/28 09:42:48;;;;;;;11.77;10.63;;;7.60;99.90;;;;;;5113402;28;20135;-87
2022/03/28 09:45:22;;;;;;;11.93;10.10;;;7.60;99.90;;;;;;5114155;27;20134;-87
2022/03/28 09:48:02;;;;;;;12.25;10.95;;;7.70;99.90;;;;;;5110791;27;20066;-86
2022/03/28 09:50:33;;;;;;;13.57;11.15;;;7.60;99.90;;;;;;5113429;27;20460;-86
2022/03/28 09:53:22;;;;;;;13.05;11.82;;;7.60;99.90;;;;;;5102533;28;20557;-86
2022/03/28 09:55:50;;;;;;;11.07;9.98;;;7.80;99.90;;;;;;5098034;28;20040;-86
2022/03/28 09:58:46;;;;;;;13.00;10.98;;;7.70;99.90;;;;;;5113286;28;20035;-86
2022/03/28 10:01:19;;;;;;;14.70;10.65;;;7.80;99.90;;;;;;5109392;27;20043;-86
2022/03/28 10:03:54;;;;;;;14.13;10.82;;;7.90;99.90;;;;;;5119114;27;20127;-87
2022/03/28 10:06:22;;;;;;;13.68;10.88;;;8.10;99.90;;;;;;5084299;28;20040;-87
2022/03/28 10:08:49;;;;;;;12.52;10.90;;;8.20;99.90;;;;;;5092452;28;20047;-84
2022/03/28 10:11:16;;;;;;;11.20;9.38;;;8.20;99.90;;;;;;5112619;28;20044;-84
2022/03/28 10:13:42;;;;;;;12.20;10.13;;;8.00;99.90;;;;;;5114299;28;20051;-86
2022/03/28 10:16:09;;;;;;;13.15;10.70;;;8.00;99.90;;;;;;5085966;27;20096;-84
2022/03/28 10:18:36;;;;;;;10.93;9.80;;;7.90;99.90;;;;;;5107310;27;20405;-85
2022/03/28 10:21:14;;;;;;;12.32;10.88;;;8.10;99.90;;;;;;5111393;28;20450;-85
2022/03/28 10:23:50;;;;;;;13.07;10.40;;;8.30;99.90;;;;;;5109072;28;20476;-83
2022/03/28 10:26:19;;;;;;;16.45;11.50;;;8.60;99.90;;;;;;5112327;27;20714;-85
2022/03/28 10:29:04;;;;;;;12.18;10.85;;;8.80;99.90;;;;;;5115334;27;20046;-85
2022/03/28 10:31:34;;;;;;;13.70;11.00;;;8.70;99.90;;;;;;5108605;28;20031;-85
2022/03/28 10:34:00;;;;;;;20.02;11.68;;;8.80;99.90;;;;;;5105854;28;20119;-86
2022/03/28 10:36:32;;;;;;;14.70;11.77;;;8.60;99.90;;;;;;5108064;28;20127;-86
2022/03/28 10:39:43;;;;;;;15.48;11.20;;;8.70;99.90;;;;;;5092686;27;20055;-87
2022/03/28 10:42:17;;;;;;;17.85;11.18;;;8.40;99.90;;;;;;5097719;28;20078;-85
2022/03/28 10:44:58;;;;;;;13.63;11.73;;;8.90;99.90;;;;;;5123419;27;20039;-85
2022/03/28 10:47:51;;;;;;;12.38;11.07;;;8.80;99.90;;;;;;5132332;27;20074;-87
2022/03/28 10:50:33;;;;;;;14.82;12.48;;;8.70;99.90;;;;;;5112755;27;20609;-85
2022/03/28 10:53:07;;;;;;;14.77;11.80;;;9.00;99.90;;;;;;5122570;27;20513;-87
2022/03/28 10:55:43;;;;;;;14.43;12.90;;;9.00;99.90;;;;;;5102082;28;20079;-86
2022/03/28 10:58:19;;;;;;;13.68;11.77;;;8.90;99.90;;;;;;5101309;28;20405;-87
2022/03/28 11:01:12;;;;;;;15.30;12.75;;;8.90;99.90;;;;;;5108712;28;20031;-86
2022/03/28 11:03:42;;;;;;;15.57;12.23;;;9.20;99.90;;;;;;5106030;28;20050;-85
2022/03/28 11:06:07;;;;;;;18.67;12.63;;;8.80;99.90;;;;;;5105427;27;20047;-84
2022/03/28 11:08:36;;;;;;;14.20;10.90;;;8.70;99.90;;;;;;5099626;28;20300;-84
2022/03/28 11:11:24;;;;;;;14.20;12.60;;;8.90;99.90;;;;;;5112993;28;20565;-83
2022/03/28 11:14:11;;;;;;;14.38;12.07;;;9.00;99.90;;;;;;5082305;28;20058;-84
2022/03/28 11:16:55;;;;;;;14.90;13.02;;;9.00;99.90;;;;;;5104937;28;20039;-82
2022/03/28 11:19:29;;;;;;;14.95;13.45;;;9.40;99.90;;;;;;5105167;27;20074;-83
2022/03/28 11:21:58;;;;;;;15.52;13.07;;;9.60;99.90;;;;;;5099254;28;20560;-81
2022/03/28 11:24:54;;;;;;;17.83;12.77;;;9.40;99.90;;;;;;5108295;27;20048;-82
2022/03/28 11:27:22;;;;;;;16.48;14.73;;;9.50;99.90;;;;;;5108937;28;20043;-80
2022/03/28 11:29:49;;;;;;;21.10;15.07;;;9.90;99.90;;;;;;5101471;28;20040;-84
2022/03/28 11:32:17;;;;;;;17.70;14.13;;;9.90;99.90;;;;;;5113423;28;20086;-82
2022/03/28 11:34:51;;;;;;;18.88;15.15;;;9.70;99.90;;;;;;5148796;27;20043;-83
2022/03/28 11:37:21;;;;;;;15.35;13.75;;;9.80;99.90;;;;;;5133853;27;20078;-85
2022/03/28 11:40:02;;;;;;;16.20;14.25;;;9.60;99.90;;;;;;5113042;28;20039;-81
2022/03/28 11:42:31;;;;;;;16.90;13.23;;;9.70;99.90;;;;;;5126043;27;20046;-87
2022/03/28 11:45:05;;;;;;;18.58;13.07;;;9.80;99.90;;;;;;5094219;28;20036;-88
2022/03/28 11:47:31;;;;;;;15.82;13.48;;;10.10;99.90;;;;;;5092347;28;20436;-86
2022/03/28 11:49:59;;;;;;;16.50;14.70;;;9.90;99.90;;;;;;5106723;28;20040;-85
2022/03/28 11:52:27;;;;;;;18.50;15.40;;;10.20;99.90;;;;;;5113049;27;20122;-86
2022/03/28 11:54:55;;;;;;;18.63;15.38;;;10.20;99.90;;;;;;5107674;28;20050;-87
2022/03/28 12:00:21;;;;;;;18.65;15.05;;;10.50;99.90;;;;;;5112848;28;20417;-87
2022/03/28 12:02:55;;;;;;;17.33;15.45;;;10.00;99.90;;;;;;5101233;28;20040;-86
2022/03/28 12:05:39;;;;;;;20.25;18.05;;;10.20;99.90;;;;;;5125157;28;20028;-84
2022/03/28 12:08:13;;;;;;;18.33;15.13;;;10.40;99.90;;;;;;5103271;27;20032;-86
2022/03/28 12:10:40;;;;;;;19.17;14.95;;;10.30;99.90;;;;;;5141081;27;20067;-86
2022/03/28 12:13:07;;;;;;;18.60;15.10;;;10.70;99.90;;;;;;5129790;27;20054;-86
2022/03/28 12:15:36;;;;;;;16.27;14.30;;;10.60;99.90;;;;;;5148138;27;20104;-83
2022/03/28 12:18:05;;;;;;;18.50;14.07;;;10.60;99.90;;;;;;5156366;27;20023;-86
2022/03/28 12:20:37;;;;;;;18.95;16.00;;;10.20;99.90;;;;;;5155745;27;20023;-85
2022/03/28 12:23:05;;;;;;;22.50;15.95;;;10.10;99.90;;;;;;5139694;27;20050;-86
2022/03/28 12:25:37;;;;;;;17.90;16.00;;;10.30;99.90;;;;;;5105976;28;20077;-87
2022/03/28 12:28:08;;;;;;;16.73;15.02;;;10.60;99.90;;;;;;5114590;28;20460;-87
2022/03/28 12:30:37;;;;;;;18.67;16.55;;;10.80;99.90;;;;;;5097005;28;20560;-86
2022/03/28 12:33:18;;;;;;;17.67;14.63;;;10.40;99.90;;;;;;5092783;28;20075;-88
2022/03/28 12:35:50;;;;;;;15.88;13.90;;;10.30;99.90;;;;;;5083123;28;20044;-87
2022/03/28 12:38:22;;;;;;;15.27;13.73;;;10.50;99.90;;;;;;5119949;28;20035;-87
2022/03/28 12:40:53;;;;;;;15.95;14.25;;;10.30;99.90;;;;;;5110319;27;20051;-87
2022/03/28 12:43:23;;;;;;;17.92;15.10;;;10.40;99.90;;;;;;5110474;28;20032;-87
2022/03/28 12:45:52;;;;;;;21.15;16.02;;;10.60;99.90;;;;;;5125306;27;20189;-87
2022/03/28 12:48:18;;;;;;;16.42;14.23;;;11.20;99.90;;;;;;5140337;27;20046;-86